sensor_id;sensor_type;location;lat;lon;timestamp;pressure;altitude;pressure_sealevel;temperature;humidity
28630;BME280;15817;42.130;24.762;2023-06-10T00:00:40;99285.41;;;22.44;82.26
28630;BME280;15817;42.130;24.762;2023-06-10T00:03:09;99282.97;;;22.39;82.13
28630;BME280;15817;42.130;24.762;2023-06-10T00:05:35;99272.44;;;22.35;81.92
28630;BME280;15817;42.130;24.762;2023-06-10T00:08:05;99292.19;;;22.37;82.04
28630;BME280;15817;42.130;24.762;2023-06-10T00:10:38;99275.34;;;22.32;81.87
28630;BME280;15817;42.130;24.762;2023-06-10T00:13:04;99287.84;;;22.34;81.99
28630;BME280;15817;42.130;24.762;2023-06-10T00:15:33;99279.03;;;22.31;81.76
28630;BME280;15817;42.130;24.762;2023-06-10T00:18:03;99281.53;;;22.34;81.68
28630;BME280;15817;42.130;24.762;2023-06-10T00:20:32;99282.03;;;22.26;81.74
28630;BME280;15817;42.130;24.762;2023-06-10T00:22:58;99272.44;;;22.21;81.77
28630;BME280;15817;42.130;24.762;2023-06-10T00:25:26;99270.69;;;22.20;82.13
28630;BME280;15817;42.130;24.762;2023-06-10T00:27:52;99271.00;;;22.15;82.14
28630;BME280;15817;42.130;24.762;2023-06-10T00:30:21;99278.91;;;22.18;81.79
28630;BME280;15817;42.130;24.762;2023-06-10T00:32:47;99287.91;;;22.19;81.88
28630;BME280;15817;42.130;24.762;2023-06-10T00:35:13;99280.09;;;22.14;81.49
28630;BME280;15817;42.130;24.762;2023-06-10T00:37:38;99288.78;;;22.19;81.68
28630;BME280;15817;42.130;24.762;2023-06-10T00:40:05;99284.34;;;22.18;81.90
28630;BME280;15817;42.130;24.762;2023-06-10T00:42:31;99272.25;;;22.10;81.82
28630;BME280;15817;42.130;24.762;2023-06-10T00:44:57;99267.88;;;22.07;82.19
28630;BME280;15817;42.130;24.762;2023-06-10T00:47:23;99267.31;;;22.02;82.36
28630;BME280;15817;42.130;24.762;2023-06-10T00:49:52;99276.00;;;22.07;82.25
28630;BME280;15817;42.130;24.762;2023-06-10T00:52:19;99271.66;;;22.04;81.99
28630;BME280;15817;42.130;24.762;2023-06-10T00:54:47;99282.31;;;22.08;82.38
28630;BME280;15817;42.130;24.762;2023-06-10T00:57:14;99267.50;;;21.99;82.49
28630;BME280;15817;42.130;24.762;2023-06-10T00:59:41;99274.56;;;22.01;82.45
28630;BME280;15817;42.130;24.762;2023-06-10T01:02:08;99263.19;;;21.95;82.47
28630;BME280;15817;42.130;24.762;2023-06-10T01:04:34;99271.41;;;21.93;82.56
28630;BME280;15817;42.130;24.762;2023-06-10T01:07:21;99266.31;;;21.89;82.56
28630;BME280;15817;42.130;24.762;2023-06-10T01:10:18;99283.34;;;21.91;82.94
28630;BME280;15817;42.130;24.762;2023-06-10T01:13:06;99279.84;;;21.89;82.71
28630;BME280;15817;42.130;24.762;2023-06-10T01:15:34;99287.38;;;21.84;83.03
28630;BME280;15817;42.130;24.762;2023-06-10T01:18:03;99276.13;;;21.76;83.43
28630;BME280;15817;42.130;24.762;2023-06-10T01:20:32;99285.91;;;21.78;83.57
28630;BME280;15817;42.130;24.762;2023-06-10T01:22:59;99281.56;;;21.76;83.50
28630;BME280;15817;42.130;24.762;2023-06-10T01:25:26;99280.00;;;21.72;83.91
28630;BME280;15817;42.130;24.762;2023-06-10T01:28:10;99273.13;;;21.66;84.29
28630;BME280;15817;42.130;24.762;2023-06-10T01:33:37;99287.81;;;21.62;84.66
28630;BME280;15817;42.130;24.762;2023-06-10T01:36:04;99292.06;;;21.66;84.48
28630;BME280;15817;42.130;24.762;2023-06-10T01:38:43;99291.28;;;21.64;84.47
28630;BME280;15817;42.130;24.762;2023-06-10T01:41:12;99291.28;;;21.64;84.57
28630;BME280;15817;42.130;24.762;2023-06-10T01:43:39;99300.47;;;21.61;84.94
28630;BME280;15817;42.130;24.762;2023-06-10T01:46:06;99282.78;;;21.56;84.59
28630;BME280;15817;42.130;24.762;2023-06-10T01:48:32;99287.09;;;21.58;84.71
28630;BME280;15817;42.130;24.762;2023-06-10T01:51:12;99277.44;;;21.54;84.65
28630;BME280;15817;42.130;24.762;2023-06-10T01:53:38;99276.50;;;21.55;84.76
28630;BME280;15817;42.130;24.762;2023-06-10T01:56:04;99286.53;;;21.53;85.34
28630;BME280;15817;42.130;24.762;2023-06-10T01:58:30;99288.91;;;21.44;85.38
28630;BME280;15817;42.130;24.762;2023-06-10T02:00:57;99293.38;;;21.45;85.49
28630;BME280;15817;42.130;24.762;2023-06-10T02:03:23;99296.25;;;21.42;85.63
28630;BME280;15817;42.130;24.762;2023-06-10T02:05:49;99299.13;;;21.39;85.87
28630;BME280;15817;42.130;24.762;2023-06-10T02:08:15;99286.16;;;21.29;86.55
28630;BME280;15817;42.130;24.762;2023-06-10T02:10:41;99281.88;;;21.25;86.69
28630;BME280;15817;42.130;24.762;2023-06-10T02:13:07;99296.72;;;21.34;86.52
28630;BME280;15817;42.130;24.762;2023-06-10T02:15:33;99294.97;;;21.33;86.44
28630;BME280;15817;42.130;24.762;2023-06-10T02:17:59;99292.44;;;21.30;86.19
28630;BME280;15817;42.130;24.762;2023-06-10T02:20:26;99281.44;;;21.17;87.06
28630;BME280;15817;42.130;24.762;2023-06-10T02:22:52;99299.19;;;21.23;87.07
28630;BME280;15817;42.130;24.762;2023-06-10T02:25:21;99297.31;;;21.23;87.17
28630;BME280;15817;42.130;24.762;2023-06-10T02:27:46;99297.50;;;21.20;87.21
28630;BME280;15817;42.130;24.762;2023-06-10T02:30:12;99297.03;;;21.12;87.65
28630;BME280;15817;42.130;24.762;2023-06-10T02:32:40;99296.28;;;21.10;87.20
28630;BME280;15817;42.130;24.762;2023-06-10T02:35:07;99298.81;;;20.98;87.73
28630;BME280;15817;42.130;24.762;2023-06-10T02:37:33;99296.44;;;20.91;87.72
28630;BME280;15817;42.130;24.762;2023-06-10T02:39:59;99300.31;;;20.87;88.60
28630;BME280;15817;42.130;24.762;2023-06-10T02:42:26;99294.53;;;20.93;88.29
28630;BME280;15817;42.130;24.762;2023-06-10T02:44:52;99306.22;;;20.94;88.31
28630;BME280;15817;42.130;24.762;2023-06-10T02:47:33;99298.03;;;20.95;88.30
28630;BME280;15817;42.130;24.762;2023-06-10T02:50:00;99301.44;;;20.99;88.12
28630;BME280;15817;42.130;24.762;2023-06-10T02:52:29;99296.03;;;20.99;87.93
28630;BME280;15817;42.130;24.762;2023-06-10T02:54:57;99296.78;;;21.01;87.81
28630;BME280;15817;42.130;24.762;2023-06-10T02:57:22;99298.44;;;21.04;87.52
28630;BME280;15817;42.130;24.762;2023-06-10T02:59:48;99304.81;;;21.03;87.76
28630;BME280;15817;42.130;24.762;2023-06-10T03:02:14;99309.25;;;21.04;88.03
28630;BME280;15817;42.130;24.762;2023-06-10T03:04:47;99305.34;;;20.93;88.32
28630;BME280;15817;42.130;24.762;2023-06-10T03:07:17;99309.19;;;20.89;88.81
28630;BME280;15817;42.130;24.762;2023-06-10T03:09:46;99314.34;;;20.94;88.64
28630;BME280;15817;42.130;24.762;2023-06-10T03:12:16;99313.28;;;20.96;88.29
28630;BME280;15817;42.130;24.762;2023-06-10T03:14:45;99316.41;;;21.05;87.96
28630;BME280;15817;42.130;24.762;2023-06-10T03:17:11;99317.91;;;21.10;87.56
28630;BME280;15817;42.130;24.762;2023-06-10T03:19:43;99332.03;;;21.15;87.29
28630;BME280;15817;42.130;24.762;2023-06-10T03:22:11;99317.22;;;21.07;87.44
28630;BME280;15817;42.130;24.762;2023-06-10T03:24:44;99318.00;;;21.09;87.67
28630;BME280;15817;42.130;24.762;2023-06-10T03:27:12;99325.16;;;21.10;87.87
28630;BME280;15817;42.130;24.762;2023-06-10T03:29:41;99315.09;;;21.12;87.83
28630;BME280;15817;42.130;24.762;2023-06-10T03:32:07;99317.53;;;21.16;87.66
28630;BME280;15817;42.130;24.762;2023-06-10T03:34:35;99320.63;;;21.10;87.78
28630;BME280;15817;42.130;24.762;2023-06-10T03:37:02;99327.84;;;21.10;87.60
28630;BME280;15817;42.130;24.762;2023-06-10T03:39:29;99315.63;;;21.03;87.95
28630;BME280;15817;42.130;24.762;2023-06-10T03:41:57;99322.69;;;21.05;88.01
28630;BME280;15817;42.130;24.762;2023-06-10T03:44:24;99317.53;;;21.01;88.02
28630;BME280;15817;42.130;24.762;2023-06-10T03:46:52;99321.13;;;21.01;87.94
28630;BME280;15817;42.130;24.762;2023-06-10T03:49:20;99333.25;;;20.94;87.80
28630;BME280;15817;42.130;24.762;2023-06-10T03:51:46;99339.97;;;20.87;87.89
28630;BME280;15817;42.130;24.762;2023-06-10T03:54:13;99327.84;;;20.78;88.01
28630;BME280;15817;42.130;24.762;2023-06-10T03:56:42;99330.09;;;20.70;88.83
28630;BME280;15817;42.130;24.762;2023-06-10T03:59:07;99323.09;;;20.66;89.09
28630;BME280;15817;42.130;24.762;2023-06-10T04:02:00;99320.69;;;20.62;89.45
28630;BME280;15817;42.130;24.762;2023-06-10T04:04:26;99318.06;;;20.60;90.20
28630;BME280;15817;42.130;24.762;2023-06-10T04:06:52;99322.69;;;20.58;89.93
28630;BME280;15817;42.130;24.762;2023-06-10T04:09:22;99329.91;;;20.57;90.16
28630;BME280;15817;42.130;24.762;2023-06-10T04:11:49;99328.78;;;20.62;90.10
28630;BME280;15817;42.130;24.762;2023-06-10T04:14:15;99313.78;;;20.56;89.98
28630;BME280;15817;42.130;24.762;2023-06-10T04:16:42;99324.50;;;20.57;90.05
28630;BME280;15817;42.130;24.762;2023-06-10T04:19:11;99322.88;;;20.71;90.06
28630;BME280;15817;42.130;24.762;2023-06-10T04:21:38;99310.47;;;20.67;89.75
28630;BME280;15817;42.130;24.762;2023-06-10T04:24:04;99330.34;;;20.66;90.26
28630;BME280;15817;42.130;24.762;2023-06-10T04:26:39;99317.13;;;20.61;90.87
28630;BME280;15817;42.130;24.762;2023-06-10T04:29:05;99318.56;;;20.67;90.53
28630;BME280;15817;42.130;24.762;2023-06-10T04:31:31;99314.59;;;20.74;89.86
28630;BME280;15817;42.130;24.762;2023-06-10T04:33:58;99322.19;;;20.83;89.43
28630;BME280;15817;42.130;24.762;2023-06-10T04:36:30;99325.69;;;20.85;89.01
28630;BME280;15817;42.130;24.762;2023-06-10T04:39:04;99314.75;;;20.71;89.17
28630;BME280;15817;42.130;24.762;2023-06-10T04:41:33;99306.66;;;20.71;89.81
28630;BME280;15817;42.130;24.762;2023-06-10T04:43:59;99311.63;;;20.78;89.74
28630;BME280;15817;42.130;24.762;2023-06-10T04:46:53;99322.09;;;20.84;89.39
28630;BME280;15817;42.130;24.762;2023-06-10T04:49:33;99306.84;;;20.83;89.02
28630;BME280;15817;42.130;24.762;2023-06-10T04:52:22;99304.38;;;20.94;88.75
28630;BME280;15817;42.130;24.762;2023-06-10T05:01:12;99300.81;;;20.78;89.74
28630;BME280;15817;42.130;24.762;2023-06-10T05:03:40;99307.97;;;20.79;89.84
28630;BME280;15817;42.130;24.762;2023-06-10T05:06:13;99309.38;;;20.86;89.67
28630;BME280;15817;42.130;24.762;2023-06-10T05:08:53;99307.09;;;20.94;89.27
28630;BME280;15817;42.130;24.762;2023-06-10T05:11:29;99308.38;;;21.03;89.15
28630;BME280;15817;42.130;24.762;2023-06-10T05:14:12;99315.38;;;21.07;88.75
28630;BME280;15817;42.130;24.762;2023-06-10T05:16:38;99318.00;;;21.09;88.46
28630;BME280;15817;42.130;24.762;2023-06-10T05:19:04;99313.38;;;21.11;88.42
28630;BME280;15817;42.130;24.762;2023-06-10T05:21:33;99317.31;;;21.21;88.33
28630;BME280;15817;42.130;24.762;2023-06-10T05:23:59;99305.72;;;21.19;88.30
28630;BME280;15817;42.130;24.762;2023-06-10T05:26:25;99304.47;;;21.24;88.05
28630;BME280;15817;42.130;24.762;2023-06-10T05:28:53;99300.63;;;21.28;87.17
28630;BME280;15817;42.130;24.762;2023-06-10T05:31:23;99300.00;;;21.39;86.72
28630;BME280;15817;42.130;24.762;2023-06-10T05:33:52;99302.34;;;21.45;86.46
28630;BME280;15817;42.130;24.762;2023-06-10T05:36:24;99294.25;;;21.45;86.58
28630;BME280;15817;42.130;24.762;2023-06-10T05:38:53;99296.94;;;21.45;86.78
28630;BME280;15817;42.130;24.762;2023-06-10T05:41:43;99304.69;;;21.51;86.39
28630;BME280;15817;42.130;24.762;2023-06-10T05:44:32;99302.75;;;21.53;86.58
28630;BME280;15817;42.130;24.762;2023-06-10T05:46:58;99304.50;;;21.54;86.88
28630;BME280;15817;42.130;24.762;2023-06-10T05:49:28;99306.91;;;21.59;86.10
28630;BME280;15817;42.130;24.762;2023-06-10T05:51:54;99300.84;;;21.55;85.23
28630;BME280;15817;42.130;24.762;2023-06-10T05:54:23;99303.25;;;21.60;85.36
28630;BME280;15817;42.130;24.762;2023-06-10T05:56:48;99300.06;;;21.53;86.05
28630;BME280;15817;42.130;24.762;2023-06-10T05:59:20;99306.44;;;21.52;87.05
28630;BME280;15817;42.130;24.762;2023-06-10T06:01:51;99310.78;;;21.55;87.52
28630;BME280;15817;42.130;24.762;2023-06-10T06:04:37;99314.16;;;21.58;88.00
28630;BME280;15817;42.130;24.762;2023-06-10T06:07:08;99311.38;;;21.60;87.56
28630;BME280;15817;42.130;24.762;2023-06-10T06:09:37;99319.31;;;21.63;87.07
28630;BME280;15817;42.130;24.762;2023-06-10T06:12:06;99326.78;;;21.74;85.81
28630;BME280;15817;42.130;24.762;2023-06-10T06:14:41;99322.25;;;21.74;84.32
28630;BME280;15817;42.130;24.762;2023-06-10T06:17:10;99333.56;;;21.81;83.22
28630;BME280;15817;42.130;24.762;2023-06-10T06:19:45;99336.97;;;21.84;82.31
28630;BME280;15817;42.130;24.762;2023-06-10T06:22:18;99335.22;;;21.83;81.78
28630;BME280;15817;42.130;24.762;2023-06-10T06:24:47;99323.91;;;21.77;82.21
28630;BME280;15817;42.130;24.762;2023-06-10T06:27:21;99322.25;;;21.74;82.26
28630;BME280;15817;42.130;24.762;2023-06-10T06:29:47;99318.31;;;21.80;82.06
28630;BME280;15817;42.130;24.762;2023-06-10T06:32:13;99329.72;;;21.85;82.34
28630;BME280;15817;42.130;24.762;2023-06-10T06:35:45;99330.25;;;21.91;81.89
28630;BME280;15817;42.130;24.762;2023-06-10T06:38:34;99324.13;;;21.88;81.37
28630;BME280;15817;42.130;24.762;2023-06-10T06:41:44;99312.81;;;21.95;81.66
28630;BME280;15817;42.130;24.762;2023-06-10T06:44:23;99304.78;;;21.94;81.79
28630;BME280;15817;42.130;24.762;2023-06-10T06:46:52;99306.53;;;21.95;80.01
28630;BME280;15817;42.130;24.762;2023-06-10T06:49:20;99307.25;;;21.98;79.52
28630;BME280;15817;42.130;24.762;2023-06-10T06:51:46;99304.28;;;22.03;79.99
28630;BME280;15817;42.130;24.762;2023-06-10T06:54:24;99306.41;;;22.12;80.51
28630;BME280;15817;42.130;24.762;2023-06-10T06:56:50;99304.78;;;22.24;79.94
28630;BME280;15817;42.130;24.762;2023-06-10T06:59:16;99301.66;;;22.30;80.04
28630;BME280;15817;42.130;24.762;2023-06-10T07:01:45;99301.84;;;22.41;79.54
28630;BME280;15817;42.130;24.762;2023-06-10T07:04:15;99299.34;;;22.52;80.07
28630;BME280;15817;42.130;24.762;2023-06-10T07:07:41;99291.97;;;22.54;79.09
28630;BME280;15817;42.130;24.762;2023-06-10T07:10:23;99288.22;;;22.57;79.08
28630;BME280;15817;42.130;24.762;2023-06-10T07:12:51;99292.66;;;22.58;79.30
28630;BME280;15817;42.130;24.762;2023-06-10T07:15:19;99286.94;;;22.62;79.21
28630;BME280;15817;42.130;24.762;2023-06-10T07:18:35;99283.06;;;22.66;79.71
28630;BME280;15817;42.130;24.762;2023-06-10T07:21:08;99289.44;;;22.65;79.76
28630;BME280;15817;42.130;24.762;2023-06-10T07:23:55;99283.84;;;22.68;80.18
28630;BME280;15817;42.130;24.762;2023-06-10T07:26:37;99272.22;;;22.66;80.50
28630;BME280;15817;42.130;24.762;2023-06-10T07:29:05;99273.78;;;22.70;80.35
28630;BME280;15817;42.130;24.762;2023-06-10T07:31:31;99267.88;;;22.78;79.93
28630;BME280;15817;42.130;24.762;2023-06-10T07:34:10;99272.91;;;22.84;78.69
28630;BME280;15817;42.130;24.762;2023-06-10T07:36:37;99276.59;;;22.83;78.18
28630;BME280;15817;42.130;24.762;2023-06-10T07:39:04;99276.00;;;22.78;77.70
28630;BME280;15817;42.130;24.762;2023-06-10T07:41:33;99270.47;;;22.80;78.33
28630;BME280;15817;42.130;24.762;2023-06-10T07:43:59;99276.59;;;22.83;78.94
28630;BME280;15817;42.130;24.762;2023-06-10T07:46:25;99275.81;;;22.81;79.18
28630;BME280;15817;42.130;24.762;2023-06-10T07:48:53;99277.47;;;22.84;78.54
28630;BME280;15817;42.130;24.762;2023-06-10T07:51:25;99284.22;;;22.91;78.39
28630;BME280;15817;42.130;24.762;2023-06-10T07:53:53;99273.53;;;23.02;78.31
28630;BME280;15817;42.130;24.762;2023-06-10T08:03:02;99274.47;;;23.55;72.98
28630;BME280;15817;42.130;24.762;2023-06-10T08:05:33;99274.06;;;23.61;71.61
28630;BME280;15817;42.130;24.762;2023-06-10T08:08:07;99276.25;;;23.68;72.00
28630;BME280;15817;42.130;24.762;2023-06-10T08:10:38;99274.75;;;23.64;72.00
28630;BME280;15817;42.130;24.762;2023-06-10T08:13:04;99261.06;;;23.91;70.62
28630;BME280;15817;42.130;24.762;2023-06-10T08:15:30;99262.06;;;24.28;69.49
28630;BME280;15817;42.130;24.762;2023-06-10T08:17:56;99261.31;;;24.39;67.44
28630;BME280;15817;42.130;24.762;2023-06-10T08:20:22;99264.31;;;24.47;67.69
28630;BME280;15817;42.130;24.762;2023-06-10T08:22:48;99258.03;;;24.46;67.69
28630;BME280;15817;42.130;24.762;2023-06-10T08:25:23;99268.88;;;24.59;67.45
28630;BME280;15817;42.130;24.762;2023-06-10T08:27:49;99265.97;;;24.86;65.63
28630;BME280;15817;42.130;24.762;2023-06-10T08:30:16;99273.59;;;24.94;66.20
28630;BME280;15817;42.130;24.762;2023-06-10T08:32:42;99267.31;;;24.80;65.55
28630;BME280;15817;42.130;24.762;2023-06-10T08:35:08;99262.66;;;24.70;65.68
28630;BME280;15817;42.130;24.762;2023-06-10T08:37:48;99255.91;;;24.75;65.61
28630;BME280;15817;42.130;24.762;2023-06-10T08:40:19;99276.53;;;24.90;65.27
28630;BME280;15817;42.130;24.762;2023-06-10T08:42:49;99271.00;;;25.16;64.34
28630;BME280;15817;42.130;24.762;2023-06-10T08:45:23;99255.03;;;25.35;62.20
28630;BME280;15817;42.130;24.762;2023-06-10T08:47:50;99260.78;;;25.54;61.23
28630;BME280;15817;42.130;24.762;2023-06-10T08:50:21;99244.97;;;25.83;60.93
28630;BME280;15817;42.130;24.762;2023-06-10T08:52:48;99247.84;;;26.15;59.41
28630;BME280;15817;42.130;24.762;2023-06-10T08:55:21;99252.44;;;26.26;58.63
28630;BME280;15817;42.130;24.762;2023-06-10T08:57:53;99244.53;;;26.45;58.82
28630;BME280;15817;42.130;24.762;2023-06-10T09:00:19;99235.06;;;26.94;56.49
28630;BME280;15817;42.130;24.762;2023-06-10T09:02:45;99224.25;;;27.35;55.26
28630;BME280;15817;42.130;24.762;2023-06-10T09:05:36;99230.94;;;27.43;54.82
28630;BME280;15817;42.130;24.762;2023-06-10T09:08:03;99224.78;;;27.61;54.25
28630;BME280;15817;42.130;24.762;2023-06-10T09:10:29;99224.25;;;27.35;54.38
28630;BME280;15817;42.130;24.762;2023-06-10T09:12:55;99222.34;;;27.47;52.75
28630;BME280;15817;42.130;24.762;2023-06-10T09:15:31;99217.09;;;27.23;49.15
28630;BME280;15817;42.130;24.762;2023-06-10T09:18:27;99220.16;;;27.09;49.94
28630;BME280;15817;42.130;24.762;2023-06-10T09:24:40;99234.88;;;26.63;49.81
28630;BME280;15817;42.130;24.762;2023-06-10T09:30:43;99216.81;;;27.06;47.53
28630;BME280;15817;42.130;24.762;2023-06-10T09:33:15;99212.88;;;26.98;47.94
28630;BME280;15817;42.130;24.762;2023-06-10T09:35:46;99217.84;;;26.93;47.62
28630;BME280;15817;42.130;24.762;2023-06-10T09:38:22;99213.25;;;26.94;48.55
28630;BME280;15817;42.130;24.762;2023-06-10T09:41:10;99210.22;;;27.08;47.40
28630;BME280;15817;42.130;24.762;2023-06-10T09:44:21;99213.16;;;27.16;47.88
28630;BME280;15817;42.130;24.762;2023-06-10T09:50:58;99217.47;;;27.30;45.61
28630;BME280;15817;42.130;24.762;2023-06-10T09:53:24;99214.53;;;27.22;45.45
28630;BME280;15817;42.130;24.762;2023-06-10T09:55:55;99219.97;;;27.54;46.09
28630;BME280;15817;42.130;24.762;2023-06-10T09:58:36;99208.41;;;27.50;49.27
28630;BME280;15817;42.130;24.762;2023-06-10T10:01:10;99214.00;;;27.49;53.83
28630;BME280;15817;42.130;24.762;2023-06-10T10:03:55;99215.53;;;27.42;54.76
28630;BME280;15817;42.130;24.762;2023-06-10T10:06:26;99210.94;;;27.21;55.48
28630;BME280;15817;42.130;24.762;2023-06-10T10:08:56;99214.19;;;27.04;55.91
28630;BME280;15817;42.130;24.762;2023-06-10T10:11:25;99211.72;;;26.90;56.18
28630;BME280;15817;42.130;24.762;2023-06-10T10:13:56;99214.13;;;26.72;56.72
28630;BME280;15817;42.130;24.762;2023-06-10T10:16:30;99218.59;;;26.73;57.58
28630;BME280;15817;42.130;24.762;2023-06-10T10:19:10;99217.09;;;26.69;58.01
28630;BME280;15817;42.130;24.762;2023-06-10T10:24:53;99207.47;;;26.65;57.73
28630;BME280;15817;42.130;24.762;2023-06-10T10:27:42;99217.84;;;26.71;57.27
28630;BME280;15817;42.130;24.762;2023-06-10T10:30:20;99207.41;;;26.87;55.82
28630;BME280;15817;42.130;24.762;2023-06-10T10:33:09;99215.72;;;27.29;55.06
28630;BME280;15817;42.130;24.762;2023-06-10T10:35:41;99215.34;;;27.33;54.55
28630;BME280;15817;42.130;24.762;2023-06-10T10:38:11;99210.59;;;27.35;54.57
28630;BME280;15817;42.130;24.762;2023-06-10T10:40:41;99204.75;;;27.40;55.16
28630;BME280;15817;42.130;24.762;2023-06-10T10:43:08;99184.31;;;27.34;53.95
28630;BME280;15817;42.130;24.762;2023-06-10T10:45:37;99187.75;;;27.36;53.96
28630;BME280;15817;42.130;24.762;2023-06-10T10:48:13;99193.94;;;27.38;54.02
28630;BME280;15817;42.130;24.762;2023-06-10T10:50:58;99201.75;;;27.43;53.02
28630;BME280;15817;42.130;24.762;2023-06-10T10:53:27;99193.03;;;27.49;52.48
28630;BME280;15817;42.130;24.762;2023-06-10T10:56:17;99199.22;;;27.51;52.96
28630;BME280;15817;42.130;24.762;2023-06-10T10:59:04;99198.91;;;27.45;53.30
28630;BME280;15817;42.130;24.762;2023-06-10T11:01:41;99194.94;;;27.37;53.48
28630;BME280;15817;42.130;24.762;2023-06-10T11:04:08;99195.22;;;27.34;52.94
28630;BME280;15817;42.130;24.762;2023-06-10T11:06:35;99193.63;;;27.32;53.26
28630;BME280;15817;42.130;24.762;2023-06-10T11:09:26;99194.06;;;27.37;51.50
28630;BME280;15817;42.130;24.762;2023-06-10T11:15:52;99191.31;;;27.16;51.67
28630;BME280;15817;42.130;24.762;2023-06-10T11:18:41;99181.31;;;27.06;51.37
28630;BME280;15817;42.130;24.762;2023-06-10T11:21:09;99188.88;;;27.02;51.81
28630;BME280;15817;42.130;24.762;2023-06-10T11:23:39;99171.63;;;27.01;52.81
28630;BME280;15817;42.130;24.762;2023-06-10T11:26:15;99181.41;;;27.15;52.71
28630;BME280;15817;42.130;24.762;2023-06-10T11:31:27;99168.03;;;27.33;53.00
28630;BME280;15817;42.130;24.762;2023-06-10T11:34:00;99172.91;;;27.29;53.08
28630;BME280;15817;42.130;24.762;2023-06-10T11:36:28;99181.97;;;27.30;52.66
28630;BME280;15817;42.130;24.762;2023-06-10T11:39:06;99158.06;;;27.22;53.35
28630;BME280;15817;42.130;24.762;2023-06-10T11:41:38;99175.25;;;27.55;52.49
28630;BME280;15817;42.130;24.762;2023-06-10T11:44:16;99172.56;;;28.27;50.54
28630;BME280;15817;42.130;24.762;2023-06-10T11:46:50;99162.56;;;28.66;48.20
28630;BME280;15817;42.130;24.762;2023-06-10T11:49:23;99167.06;;;28.76;48.01
28630;BME280;15817;42.130;24.762;2023-06-10T11:51:51;99156.59;;;28.41;49.49
28630;BME280;15817;42.130;24.762;2023-06-10T11:54:20;99151.22;;;28.30;49.42
28630;BME280;15817;42.130;24.762;2023-06-10T11:56:57;99151.00;;;28.53;48.47
28630;BME280;15817;42.130;24.762;2023-06-10T11:59:30;99145.63;;;28.81;47.45
28630;BME280;15817;42.130;24.762;2023-06-10T12:01:56;99152.13;;;29.00;47.88
28630;BME280;15817;42.130;24.762;2023-06-10T12:04:30;99143.19;;;28.88;47.23
28630;BME280;15817;42.130;24.762;2023-06-10T12:07:04;99149.25;;;29.01;45.70
28630;BME280;15817;42.130;24.762;2023-06-10T12:10:07;99146.78;;;28.98;45.58
28630;BME280;15817;42.130;24.762;2023-06-10T12:12:38;99146.13;;;28.56;46.36
28630;BME280;15817;42.130;24.762;2023-06-10T12:15:35;99138.44;;;28.31;48.01
28630;BME280;15817;42.130;24.762;2023-06-10T12:18:23;99131.31;;;28.59;49.89
28630;BME280;15817;42.130;24.762;2023-06-10T12:21:05;99122.25;;;28.77;49.04
28630;BME280;15817;42.130;24.762;2023-06-10T12:24:02;99127.38;;;28.42;50.37
28630;BME280;15817;42.130;24.762;2023-06-10T12:26:41;99129.97;;;28.03;50.91
28630;BME280;15817;42.130;24.762;2023-06-10T12:29:21;99131.44;;;27.87;52.00
28630;BME280;15817;42.130;24.762;2023-06-10T12:32:03;99128.19;;;27.72;52.71
28630;BME280;15817;42.130;24.762;2023-06-10T12:34:41;99129.88;;;27.94;51.53
28630;BME280;15817;42.130;24.762;2023-06-10T12:37:17;99118.09;;;27.93;51.07
28630;BME280;15817;42.130;24.762;2023-06-10T12:39:57;99124.28;;;27.95;50.75
28630;BME280;15817;42.130;24.762;2023-06-10T12:42:51;99121.31;;;28.38;49.31
28630;BME280;15817;42.130;24.762;2023-06-10T12:45:42;99117.75;;;28.48;48.83
28630;BME280;15817;42.130;24.762;2023-06-10T12:48:21;99128.13;;;28.63;47.54
28630;BME280;15817;42.130;24.762;2023-06-10T12:50:58;99115.81;;;28.78;47.93
28630;BME280;15817;42.130;24.762;2023-06-10T12:53:25;99114.53;;;28.83;47.32
28630;BME280;15817;42.130;24.762;2023-06-10T12:55:55;99106.06;;;28.45;47.96
28630;BME280;15817;42.130;24.762;2023-06-10T12:58:47;99095.69;;;28.39;48.25
28630;BME280;15817;42.130;24.762;2023-06-10T13:01:18;99097.03;;;28.64;47.42
28630;BME280;15817;42.130;24.762;2023-06-10T13:03:56;99098.09;;;28.83;47.28
28630;BME280;15817;42.130;24.762;2023-06-10T13:06:38;99097.22;;;28.82;46.81
28630;BME280;15817;42.130;24.762;2023-06-10T13:09:10;99114.53;;;29.02;47.79
28630;BME280;15817;42.130;24.762;2023-06-10T13:15:11;99097.97;;;28.84;45.50
28630;BME280;15817;42.130;24.762;2023-06-10T13:18:14;99098.19;;;28.71;45.27
28630;BME280;15817;42.130;24.762;2023-06-10T13:21:26;99094.13;;;28.46;46.19
28630;BME280;15817;42.130;24.762;2023-06-10T13:24:08;99098.03;;;28.63;45.87
28630;BME280;15817;42.130;24.762;2023-06-10T13:26:50;99106.81;;;28.76;45.41
28630;BME280;15817;42.130;24.762;2023-06-10T13:29:20;99104.00;;;28.88;44.64
28630;BME280;15817;42.130;24.762;2023-06-10T13:31:46;99098.66;;;28.86;44.95
28630;BME280;15817;42.130;24.762;2023-06-10T13:34:14;99088.25;;;28.61;44.52
28630;BME280;15817;42.130;24.762;2023-06-10T13:36:41;99096.59;;;28.50;45.28
28630;BME280;15817;42.130;24.762;2023-06-10T13:39:25;99100.63;;;28.65;45.17
28630;BME280;15817;42.130;24.762;2023-06-10T13:42:02;99088.09;;;28.62;44.61
28630;BME280;15817;42.130;24.762;2023-06-10T13:44:31;99096.31;;;28.72;45.07
28630;BME280;15817;42.130;24.762;2023-06-10T13:46:59;99086.25;;;28.72;45.23
28630;BME280;15817;42.130;24.762;2023-06-10T13:49:25;99098.91;;;28.73;44.55
28630;BME280;15817;42.130;24.762;2023-06-10T13:51:54;99094.28;;;28.64;44.36
28630;BME280;15817;42.130;24.762;2023-06-10T13:54:20;99100.63;;;28.74;44.33
28630;BME280;15817;42.130;24.762;2023-06-10T13:56:47;99096.88;;;28.66;44.88
28630;BME280;15817;42.130;24.762;2023-06-10T13:59:18;99089.66;;;28.45;45.67